sensor_id;sensor_type;location;lat;lon;timestamp;P1;durP1;ratioP1;P2;durP2;ratioP2
69081;SDS011;56184;51.986;5.760;2022-09-25T00:00:35;8.25;;;1.73;;
69081;SDS011;56184;51.986;5.760;2022-09-25T00:03:00;5.43;;;1.50;;
69081;SDS011;56184;51.986;5.760;2022-09-25T00:05:26;5.53;;;1.60;;
69081;SDS011;56184;51.986;5.760;2022-09-25T00:07:52;7.65;;;1.48;;
69081;SDS011;56184;51.986;5.760;2022-09-25T00:10:19;6.00;;;1.40;;
69081;SDS011;56184;51.986;5.760;2022-09-25T00:12:44;5.25;;;1.42;;
69081;SDS011;56184;51.986;5.760;2022-09-25T00:15:10;4.10;;;1.40;;
69081;SDS011;56184;51.986;5.760;2022-09-25T00:17:35;2.33;;;1.30;;
69081;SDS011;56184;51.986;5.760;2022-09-25T00:20:01;10.45;;;1.38;;
69081;SDS011;56184;51.986;5.760;2022-09-25T00:22:27;8.00;;;1.60;;
69081;SDS011;56184;51.986;5.760;2022-09-25T00:24:54;5.15;;;1.48;;
69081;SDS011;56184;51.986;5.760;2022-09-25T00:27:20;4.28;;;1.63;;
69081;SDS011;56184;51.986;5.760;2022-09-25T00:29:46;4.75;;;1.63;;
69081;SDS011;56184;51.986;5.760;2022-09-25T00:32:13;3.58;;;1.60;;
69081;SDS011;56184;51.986;5.760;2022-09-25T00:34:39;7.75;;;1.63;;
69081;SDS011;56184;51.986;5.760;2022-09-25T00:37:05;3.42;;;1.48;;
69081;SDS011;56184;51.986;5.760;2022-09-25T00:39:31;3.22;;;1.42;;
69081;SDS011;56184;51.986;5.760;2022-09-25T00:41:57;5.68;;;1.98;;
69081;SDS011;56184;51.986;5.760;2022-09-25T00:47:11;5.57;;;1.60;;
69081;SDS011;56184;51.986;5.760;2022-09-25T00:49:41;6.75;;;1.70;;
69081;SDS011;56184;51.986;5.760;2022-09-25T00:52:08;9.00;;;1.65;;
69081;SDS011;56184;51.986;5.760;2022-09-25T00:54:40;11.27;;;1.95;;
69081;SDS011;56184;51.986;5.760;2022-09-25T00:57:17;5.57;;;1.50;;
69081;SDS011;56184;51.986;5.760;2022-09-25T00:59:45;4.90;;;1.48;;
69081;SDS011;56184;51.986;5.760;2022-09-25T01:02:16;6.05;;;1.65;;
69081;SDS011;56184;51.986;5.760;2022-09-25T01:04:48;4.88;;;1.50;;
69081;SDS011;56184;51.986;5.760;2022-09-25T01:07:15;7.03;;;1.65;;
69081;SDS011;56184;51.986;5.760;2022-09-25T01:09:41;3.95;;;1.45;;
69081;SDS011;56184;51.986;5.760;2022-09-25T01:12:09;4.47;;;1.65;;
69081;SDS011;56184;51.986;5.760;2022-09-25T01:14:34;5.30;;;1.40;;
69081;SDS011;56184;51.986;5.760;2022-09-25T01:19:38;9.95;;;1.65;;
69081;SDS011;56184;51.986;5.760;2022-09-25T01:31:26;6.70;;;1.67;;
69081;SDS011;56184;51.986;5.760;2022-09-25T01:36:55;4.43;;;1.70;;
69081;SDS011;56184;51.986;5.760;2022-09-25T01:40:31;3.00;;;1.42;;
69081;SDS011;56184;51.986;5.760;2022-09-25T01:42:38;5.60;;;1.40;;
69081;SDS011;56184;51.986;5.760;2022-09-25T01:45:08;4.50;;;1.50;;
69081;SDS011;56184;51.986;5.760;2022-09-25T01:47:39;3.20;;;1.52;;
69081;SDS011;56184;51.986;5.760;2022-09-25T01:50:13;8.63;;;2.05;;
69081;SDS011;56184;51.986;5.760;2022-09-25T01:52:48;6.38;;;1.58;;
69081;SDS011;56184;51.986;5.760;2022-09-25T01:55:20;4.28;;;1.55;;
69081;SDS011;56184;51.986;5.760;2022-09-25T01:57:52;6.32;;;1.80;;
69081;SDS011;56184;51.986;5.760;2022-09-25T02:00:22;5.80;;;1.60;;
69081;SDS011;56184;51.986;5.760;2022-09-25T02:02:51;4.50;;;1.90;;
69081;SDS011;56184;51.986;5.760;2022-09-25T02:05:48;3.50;;;1.52;;
69081;SDS011;56184;51.986;5.760;2022-09-25T02:08:19;3.80;;;1.50;;
69081;SDS011;56184;51.986;5.760;2022-09-25T02:11:02;3.20;;;1.52;;
69081;SDS011;56184;51.986;5.760;2022-09-25T02:13:37;10.55;;;2.10;;
69081;SDS011;56184;51.986;5.760;2022-09-25T02:16:11;4.55;;;1.48;;
69081;SDS011;56184;51.986;5.760;2022-09-25T02:26:43;2.55;;;1.40;;
69081;SDS011;56184;51.986;5.760;2022-09-25T02:29:09;2.95;;;1.40;;
69081;SDS011;56184;51.986;5.760;2022-09-25T02:31:39;4.25;;;1.50;;
69081;SDS011;56184;51.986;5.760;2022-09-25T02:34:09;5.38;;;1.40;;
69081;SDS011;56184;51.986;5.760;2022-09-25T02:36:35;3.10;;;1.50;;
69081;SDS011;56184;51.986;5.760;2022-09-25T02:39:02;6.00;;;1.58;;
69081;SDS011;56184;51.986;5.760;2022-09-25T02:55:03;6.72;;;1.40;;
69081;SDS011;56184;51.986;5.760;2022-09-25T03:00:22;2.85;;;1.20;;
69081;SDS011;56184;51.986;5.760;2022-09-25T03:02:51;8.65;;;2.38;;
69081;SDS011;56184;51.986;5.760;2022-09-25T03:05:22;2.15;;;1.00;;
69081;SDS011;56184;51.986;5.760;2022-09-25T03:07:49;3.75;;;1.10;;
69081;SDS011;56184;51.986;5.760;2022-09-25T03:10:35;0.90;;;0.80;;
69081;SDS011;56184;51.986;5.760;2022-09-25T03:13:18;1.77;;;0.90;;
69081;SDS011;56184;51.986;5.760;2022-09-25T03:15:53;6.18;;;0.80;;
69081;SDS011;56184;51.986;5.760;2022-09-25T03:18:25;0.80;;;0.80;;
69081;SDS011;56184;51.986;5.760;2022-09-25T03:20:52;1.45;;;0.90;;
69081;SDS011;56184;51.986;5.760;2022-09-25T03:23:18;1.33;;;1.00;;
69081;SDS011;56184;51.986;5.760;2022-09-25T03:25:43;1.77;;;0.80;;
69081;SDS011;56184;51.986;5.760;2022-09-25T03:28:09;4.93;;;0.90;;
69081;SDS011;56184;51.986;5.760;2022-09-25T03:30:36;1.55;;;0.90;;
69081;SDS011;56184;51.986;5.760;2022-09-25T03:33:04;1.35;;;1.00;;
69081;SDS011;56184;51.986;5.760;2022-09-25T03:35:34;1.15;;;1.00;;
69081;SDS011;56184;51.986;5.760;2022-09-25T03:38:01;1.10;;;0.80;;
69081;SDS011;56184;51.986;5.760;2022-09-25T03:40:27;1.45;;;0.90;;
69081;SDS011;56184;51.986;5.760;2022-09-25T03:42:53;4.15;;;0.77;;
69081;SDS011;56184;51.986;5.760;2022-09-25T03:45:18;5.63;;;0.80;;
69081;SDS011;56184;51.986;5.760;2022-09-25T03:47:44;1.13;;;0.80;;
69081;SDS011;56184;51.986;5.760;2022-09-25T03:50:09;1.45;;;1.00;;
69081;SDS011;56184;51.986;5.760;2022-09-25T03:52:35;2.95;;;1.00;;
69081;SDS011;56184;51.986;5.760;2022-09-25T03:55:01;3.05;;;1.17;;
69081;SDS011;56184;51.986;5.760;2022-09-25T03:57:27;3.72;;;1.10;;
69081;SDS011;56184;51.986;5.760;2022-09-25T03:59:52;2.25;;;0.80;;
69081;SDS011;56184;51.986;5.760;2022-09-25T04:02:18;1.20;;;1.00;;
69081;SDS011;56184;51.986;5.760;2022-09-25T04:04:43;6.60;;;1.15;;
69081;SDS011;56184;51.986;5.760;2022-09-25T04:07:10;3.70;;;1.00;;
69081;SDS011;56184;51.986;5.760;2022-09-25T04:09:36;1.65;;;0.90;;
69081;SDS011;56184;51.986;5.760;2022-09-25T04:12:02;1.98;;;0.90;;
69081;SDS011;56184;51.986;5.760;2022-09-25T04:14:30;4.40;;;1.00;;
69081;SDS011;56184;51.986;5.760;2022-09-25T04:16:56;4.13;;;1.00;;
69081;SDS011;56184;51.986;5.760;2022-09-25T04:19:21;1.10;;;0.90;;
69081;SDS011;56184;51.986;5.760;2022-09-25T04:21:47;4.53;;;1.35;;
69081;SDS011;56184;51.986;5.760;2022-09-25T04:24:13;4.25;;;1.00;;
69081;SDS011;56184;51.986;5.760;2022-09-25T04:26:57;2.55;;;0.90;;
69081;SDS011;56184;51.986;5.760;2022-09-25T04:29:22;2.20;;;1.00;;
69081;SDS011;56184;51.986;5.760;2022-09-25T04:31:48;2.50;;;1.67;;
69081;SDS011;56184;51.986;5.760;2022-09-25T04:34:34;1.00;;;0.90;;
69081;SDS011;56184;51.986;5.760;2022-09-25T04:37:00;1.73;;;1.13;;
69081;SDS011;56184;51.986;5.760;2022-09-25T04:39:25;2.08;;;1.02;;
69081;SDS011;56184;51.986;5.760;2022-09-25T04:41:51;1.55;;;0.98;;
69081;SDS011;56184;51.986;5.760;2022-09-25T04:44:17;8.40;;;1.08;;
69081;SDS011;56184;51.986;5.760;2022-09-25T04:46:44;3.42;;;1.00;;
69081;SDS011;56184;51.986;5.760;2022-09-25T04:49:10;2.50;;;1.00;;
69081;SDS011;56184;51.986;5.760;2022-09-25T04:51:35;3.47;;;0.77;;
69081;SDS011;56184;51.986;5.760;2022-09-25T04:54:03;5.88;;;0.88;;
69081;SDS011;56184;51.986;5.760;2022-09-25T04:56:29;2.05;;;0.80;;
69081;SDS011;56184;51.986;5.760;2022-09-25T04:58:54;2.50;;;0.95;;
69081;SDS011;56184;51.986;5.760;2022-09-25T05:01:20;2.95;;;0.93;;
69081;SDS011;56184;51.986;5.760;2022-09-25T05:03:46;1.55;;;1.10;;
69081;SDS011;56184;51.986;5.760;2022-09-25T05:06:17;1.33;;;1.05;;
69081;SDS011;56184;51.986;5.760;2022-09-25T05:08:43;2.67;;;1.70;;
69081;SDS011;56184;51.986;5.760;2022-09-25T05:11:11;7.15;;;1.30;;
69081;SDS011;56184;51.986;5.760;2022-09-25T05:13:37;1.92;;;1.75;;
69081;SDS011;56184;51.986;5.760;2022-09-25T05:16:03;1.02;;;0.98;;
69081;SDS011;56184;51.986;5.760;2022-09-25T05:18:28;3.88;;;0.90;;
69081;SDS011;56184;51.986;5.760;2022-09-25T05:20:54;3.03;;;1.00;;
69081;SDS011;56184;51.986;5.760;2022-09-25T05:23:20;3.33;;;1.10;;
69081;SDS011;56184;51.986;5.760;2022-09-25T05:25:51;7.10;;;1.23;;
69081;SDS011;56184;51.986;5.760;2022-09-25T05:28:24;6.63;;;1.20;;
69081;SDS011;56184;51.986;5.760;2022-09-25T05:30:50;6.28;;;1.20;;
69081;SDS011;56184;51.986;5.760;2022-09-25T05:33:16;4.03;;;1.10;;
69081;SDS011;56184;51.986;5.760;2022-09-25T05:35:43;1.20;;;1.10;;
69081;SDS011;56184;51.986;5.760;2022-09-25T05:38:08;2.83;;;1.40;;
69081;SDS011;56184;51.986;5.760;2022-09-25T05:40:34;0.90;;;0.90;;
69081;SDS011;56184;51.986;5.760;2022-09-25T05:43:03;2.70;;;1.30;;
69081;SDS011;56184;51.986;5.760;2022-09-25T05:45:29;5.38;;;1.30;;
69081;SDS011;56184;51.986;5.760;2022-09-25T05:48:02;5.10;;;1.15;;
69081;SDS011;56184;51.986;5.760;2022-09-25T05:50:29;1.75;;;1.10;;
69081;SDS011;56184;51.986;5.760;2022-09-25T05:52:59;4.53;;;1.33;;
69081;SDS011;56184;51.986;5.760;2022-09-25T05:55:26;2.35;;;1.30;;
69081;SDS011;56184;51.986;5.760;2022-09-25T05:57:53;2.30;;;1.10;;
69081;SDS011;56184;51.986;5.760;2022-09-25T06:00:23;1.50;;;1.40;;
69081;SDS011;56184;51.986;5.760;2022-09-25T06:02:51;3.40;;;1.20;;
69081;SDS011;56184;51.986;5.760;2022-09-25T06:05:17;3.15;;;1.50;;
69081;SDS011;56184;51.986;5.760;2022-09-25T06:07:42;1.80;;;1.38;;
69081;SDS011;56184;51.986;5.760;2022-09-25T06:10:08;2.15;;;1.50;;
69081;SDS011;56184;51.986;5.760;2022-09-25T06:12:34;3.22;;;1.60;;
69081;SDS011;56184;51.986;5.760;2022-09-25T06:15:00;5.22;;;1.90;;
69081;SDS011;56184;51.986;5.760;2022-09-25T06:17:26;3.50;;;1.73;;
69081;SDS011;56184;51.986;5.760;2022-09-25T06:19:53;2.75;;;1.50;;
69081;SDS011;56184;51.986;5.760;2022-09-25T06:22:18;2.33;;;1.60;;
69081;SDS011;56184;51.986;5.760;2022-09-25T06:24:44;2.42;;;1.90;;
69081;SDS011;56184;51.986;5.760;2022-09-25T06:27:10;1.67;;;1.58;;
69081;SDS011;56184;51.986;5.760;2022-09-25T06:29:36;2.00;;;1.80;;
69081;SDS011;56184;51.986;5.760;2022-09-25T06:32:02;4.53;;;1.80;;
69081;SDS011;56184;51.986;5.760;2022-09-25T06:34:28;2.50;;;1.90;;
69081;SDS011;56184;51.986;5.760;2022-09-25T06:36:53;1.67;;;1.58;;
69081;SDS011;56184;51.986;5.760;2022-09-25T06:39:19;1.70;;;1.60;;
69081;SDS011;56184;51.986;5.760;2022-09-25T06:41:45;1.73;;;1.63;;
69081;SDS011;56184;51.986;5.760;2022-09-25T06:44:10;4.10;;;1.70;;
69081;SDS011;56184;51.986;5.760;2022-09-25T06:46:36;2.40;;;1.92;;
69081;SDS011;56184;51.986;5.760;2022-09-25T06:49:05;3.28;;;1.90;;
69081;SDS011;56184;51.986;5.760;2022-09-25T06:51:33;4.28;;;1.70;;
69081;SDS011;56184;51.986;5.760;2022-09-25T06:53:59;2.25;;;1.70;;
69081;SDS011;56184;51.986;5.760;2022-09-25T06:56:25;2.28;;;1.90;;
69081;SDS011;56184;51.986;5.760;2022-09-25T06:58:50;7.72;;;2.00;;
69081;SDS011;56184;51.986;5.760;2022-09-25T07:01:17;5.68;;;1.60;;
69081;SDS011;56184;51.986;5.760;2022-09-25T07:03:45;3.65;;;1.95;;
69081;SDS011;56184;51.986;5.760;2022-09-25T07:08:42;2.25;;;1.77;;
69081;SDS011;56184;51.986;5.760;2022-09-25T07:11:19;3.13;;;1.77;;
69081;SDS011;56184;51.986;5.760;2022-09-25T07:13:46;2.88;;;2.00;;
69081;SDS011;56184;51.986;5.760;2022-09-25T07:16:15;4.90;;;2.20;;
69081;SDS011;56184;51.986;5.760;2022-09-25T07:18:51;2.97;;;2.30;;
69081;SDS011;56184;51.986;5.760;2022-09-25T07:21:19;4.20;;;2.00;;
69081;SDS011;56184;51.986;5.760;2022-09-25T07:23:46;5.07;;;2.60;;
69081;SDS011;56184;51.986;5.760;2022-09-25T07:26:15;5.57;;;2.00;;
69081;SDS011;56184;51.986;5.760;2022-09-25T07:28:41;6.07;;;2.65;;
69081;SDS011;56184;51.986;5.760;2022-09-25T07:31:18;6.03;;;2.30;;
69081;SDS011;56184;51.986;5.760;2022-09-25T07:33:52;4.90;;;2.42;;
69081;SDS011;56184;51.986;5.760;2022-09-25T07:36:18;4.75;;;2.80;;
69081;SDS011;56184;51.986;5.760;2022-09-25T07:38:48;6.57;;;2.72;;
69081;SDS011;56184;51.986;5.760;2022-09-25T07:41:17;6.05;;;2.22;;
69081;SDS011;56184;51.986;5.760;2022-09-25T07:43:46;9.63;;;2.50;;
69081;SDS011;56184;51.986;5.760;2022-09-25T07:46:16;4.60;;;2.35;;
69081;SDS011;56184;51.986;5.760;2022-09-25T07:48:42;10.10;;;2.50;;
69081;SDS011;56184;51.986;5.760;2022-09-25T07:51:09;5.85;;;2.50;;
69081;SDS011;56184;51.986;5.760;2022-09-25T07:53:36;7.80;;;2.17;;
69081;SDS011;56184;51.986;5.760;2022-09-25T07:56:02;8.93;;;2.42;;
69081;SDS011;56184;51.986;5.760;2022-09-25T07:58:28;8.70;;;2.40;;
69081;SDS011;56184;51.986;5.760;2022-09-25T08:00:57;9.75;;;2.03;;
69081;SDS011;56184;51.986;5.760;2022-09-25T08:03:24;10.88;;;2.38;;
69081;SDS011;56184;51.986;5.760;2022-09-25T08:08:29;9.32;;;1.52;;
69081;SDS011;56184;51.986;5.760;2022-09-25T08:11:02;5.47;;;1.33;;
69081;SDS011;56184;51.986;5.760;2022-09-25T08:13:33;3.60;;;1.33;;
69081;SDS011;56184;51.986;5.760;2022-09-25T08:16:05;5.28;;;1.55;;
69081;SDS011;56184;51.986;5.760;2022-09-25T08:18:35;7.22;;;1.60;;
69081;SDS011;56184;51.986;5.760;2022-09-25T08:21:01;2.55;;;1.17;;
69081;SDS011;56184;51.986;5.760;2022-09-25T08:23:27;6.47;;;1.40;;
69081;SDS011;56184;51.986;5.760;2022-09-25T08:25:53;4.32;;;1.38;;
69081;SDS011;56184;51.986;5.760;2022-09-25T08:28:18;3.75;;;1.10;;
69081;SDS011;56184;51.986;5.760;2022-09-25T08:30:44;4.90;;;1.30;;
69081;SDS011;56184;51.986;5.760;2022-09-25T08:33:11;3.80;;;1.30;;
69081;SDS011;56184;51.986;5.760;2022-09-25T08:35:40;6.15;;;1.50;;
69081;SDS011;56184;51.986;5.760;2022-09-25T08:38:07;6.03;;;1.25;;
69081;SDS011;56184;51.986;5.760;2022-09-25T08:40:36;11.15;;;1.85;;
69081;SDS011;56184;51.986;5.760;2022-09-25T08:43:04;4.95;;;1.38;;
69081;SDS011;56184;51.986;5.760;2022-09-25T08:45:33;8.68;;;1.52;;
69081;SDS011;56184;51.986;5.760;2022-09-25T08:48:25;5.97;;;1.40;;
69081;SDS011;56184;51.986;5.760;2022-09-25T08:51:12;5.35;;;1.15;;
69081;SDS011;56184;51.986;5.760;2022-09-25T08:53:38;7.32;;;1.30;;
69081;SDS011;56184;51.986;5.760;2022-09-25T08:56:08;5.20;;;1.10;;
69081;SDS011;56184;51.986;5.760;2022-09-25T08:58:39;4.72;;;0.82;;
69081;SDS011;56184;51.986;5.760;2022-09-25T09:01:14;6.60;;;1.00;;
69081;SDS011;56184;51.986;5.760;2022-09-25T09:06:36;3.20;;;0.95;;
69081;SDS011;56184;51.986;5.760;2022-09-25T09:09:07;6.03;;;1.05;;
69081;SDS011;56184;51.986;5.760;2022-09-25T09:11:41;6.55;;;1.20;;
69081;SDS011;56184;51.986;5.760;2022-09-25T09:14:15;8.38;;;1.08;;
69081;SDS011;56184;51.986;5.760;2022-09-25T09:19:20;4.88;;;1.00;;
69081;SDS011;56184;51.986;5.760;2022-09-25T09:21:47;6.57;;;1.15;;
69081;SDS011;56184;51.986;5.760;2022-09-25T09:32:44;4.05;;;1.20;;
69081;SDS011;56184;51.986;5.760;2022-09-25T09:38:28;4.68;;;1.40;;
69081;SDS011;56184;51.986;5.760;2022-09-25T09:43:43;2.78;;;1.08;;
69081;SDS011;56184;51.986;5.760;2022-09-25T09:51:42;5.10;;;0.95;;
69081;SDS011;56184;51.986;5.760;2022-09-25T09:54:32;7.78;;;0.88;;
69081;SDS011;56184;51.986;5.760;2022-09-25T09:57:12;2.42;;;0.90;;
69081;SDS011;56184;51.986;5.760;2022-09-25T09:59:48;5.05;;;0.90;;
69081;SDS011;56184;51.986;5.760;2022-09-25T10:05:36;2.80;;;0.95;;
69081;SDS011;56184;51.986;5.760;2022-09-25T10:08:08;2.53;;;0.80;;
69081;SDS011;56184;51.986;5.760;2022-09-25T10:10:35;4.72;;;0.75;;
69081;SDS011;56184;51.986;5.760;2022-09-25T10:13:03;3.40;;;0.70;;
69081;SDS011;56184;51.986;5.760;2022-09-25T10:15:35;5.90;;;0.80;;
69081;SDS011;56184;51.986;5.760;2022-09-25T10:18:06;4.22;;;0.80;;
69081;SDS011;56184;51.986;5.760;2022-09-25T10:20:56;2.50;;;0.77;;
69081;SDS011;56184;51.986;5.760;2022-09-25T10:23:39;3.15;;;0.90;;
69081;SDS011;56184;51.986;5.760;2022-09-25T10:28:47;2.60;;;0.55;;
69081;SDS011;56184;51.986;5.760;2022-09-25T10:31:13;2.42;;;0.60;;
69081;SDS011;56184;51.986;5.760;2022-09-25T10:33:41;7.10;;;0.90;;
69081;SDS011;56184;51.986;5.760;2022-09-25T10:36:07;1.60;;;0.57;;
69081;SDS011;56184;51.986;5.760;2022-09-25T10:38:35;3.35;;;0.77;;
69081;SDS011;56184;51.986;5.760;2022-09-25T10:41:10;5.10;;;0.90;;
69081;SDS011;56184;51.986;5.760;2022-09-25T10:46:33;2.53;;;0.70;;
69081;SDS011;56184;51.986;5.760;2022-09-25T10:49:19;2.70;;;0.50;;
69081;SDS011;56184;51.986;5.760;2022-09-25T10:52:12;3.15;;;0.73;;
69081;SDS011;56184;51.986;5.760;2022-09-25T10:54:38;2.60;;;0.70;;
69081;SDS011;56184;51.986;5.760;2022-09-25T10:59:58;2.22;;;0.93;;
69081;SDS011;56184;51.986;5.760;2022-09-25T11:02:36;3.25;;;0.80;;
69081;SDS011;56184;51.986;5.760;2022-09-25T11:05:13;2.78;;;0.60;;
69081;SDS011;56184;51.986;5.760;2022-09-25T11:07:47;4.68;;;0.80;;
69081;SDS011;56184;51.986;5.760;2022-09-25T11:10:26;2.83;;;0.70;;
69081;SDS011;56184;51.986;5.760;2022-09-25T11:12:54;3.25;;;0.77;;
69081;SDS011;56184;51.986;5.760;2022-09-25T11:15:23;2.97;;;0.60;;
69081;SDS011;56184;51.986;5.760;2022-09-25T11:17:52;4.13;;;0.70;;
69081;SDS011;56184;51.986;5.760;2022-09-25T11:20:28;3.13;;;0.70;;
69081;SDS011;56184;51.986;5.760;2022-09-25T11:31:14;3.50;;;0.95;;
69081;SDS011;56184;51.986;5.760;2022-09-25T11:36:39;4.53;;;0.93;;
69081;SDS011;56184;51.986;5.760;2022-09-25T11:39:10;2.45;;;0.60;;
69081;SDS011;56184;51.986;5.760;2022-09-25T11:47:31;3.90;;;1.10;;
69081;SDS011;56184;51.986;5.760;2022-09-25T11:50:23;15.70;;;1.10;;
69081;SDS011;56184;51.986;5.760;2022-09-25T11:55:35;5.00;;;1.20;;
69081;SDS011;56184;51.986;5.760;2022-09-25T12:17:27;4.13;;;0.80;;
69081;SDS011;56184;51.986;5.760;2022-09-25T12:20:26;4.55;;;0.82;;
69081;SDS011;56184;51.986;5.760;2022-09-25T12:23:23;2.83;;;0.70;;
69081;SDS011;56184;51.986;5.760;2022-09-25T12:34:35;4.43;;;0.60;;
69081;SDS011;56184;51.986;5.760;2022-09-25T12:37:19;3.08;;;0.70;;
69081;SDS011;56184;51.986;5.760;2022-09-25T12:40:03;2.20;;;0.73;;
69081;SDS011;56184;51.986;5.760;2022-09-25T12:50:32;2.28;;;0.60;;
69081;SDS011;56184;51.986;5.760;2022-09-25T12:53:10;3.35;;;0.70;;
69081;SDS011;56184;51.986;5.760;2022-09-25T12:55:59;2.45;;;0.60;;
69081;SDS011;56184;51.986;5.760;2022-09-25T12:58:43;2.55;;;0.60;;
69081;SDS011;56184;51.986;5.760;2022-09-25T13:01:26;3.22;;;0.80;;
69081;SDS011;56184;51.986;5.760;2022-09-25T13:04:03;2.85;;;0.60;;
69081;SDS011;56184;51.986;5.760;2022-09-25T13:06:54;3.30;;;0.80;;
69081;SDS011;56184;51.986;5.760;2022-09-25T13:12:09;1.65;;;0.75;;
69081;SDS011;56184;51.986;5.760;2022-09-25T13:14:56;4.85;;;0.73;;
69081;SDS011;56184;51.986;5.760;2022-09-25T13:17:43;1.83;;;0.73;;
69081;SDS011;56184;51.986;5.760;2022-09-25T13:25:57;3.35;;;1.30;;
69081;SDS011;56184;51.986;5.760;2022-09-25T13:28:30;3.67;;;1.38;;
69081;SDS011;56184;51.986;5.760;2022-09-25T13:31:19;4.78;;;0.80;;
69081;SDS011;56184;51.986;5.760;2022-09-25T13:38:50;2.95;;;0.90;;
69081;SDS011;56184;51.986;5.760;2022-09-25T13:48:11;3.65;;;0.60;;
69081;SDS011;56184;51.986;5.760;2022-09-25T14:01:37;1.98;;;0.60;;
69081;SDS011;56184;51.986;5.760;2022-09-25T14:06:39;1.73;;;0.50;;
69081;SDS011;56184;51.986;5.760;2022-09-25T14:09:11;5.40;;;0.70;;
69081;SDS011;56184;51.986;5.760;2022-09-25T14:11:42;3.53;;;0.80;;
69081;SDS011;56184;51.986;5.760;2022-09-25T14:14:17;3.17;;;0.63;;
69081;SDS011;56184;51.986;5.760;2022-09-25T14:16:52;3.42;;;0.63;;
69081;SDS011;56184;51.986;5.760;2022-09-25T14:19:22;3.60;;;0.93;;
69081;SDS011;56184;51.986;5.760;2022-09-25T14:21:51;3.45;;;1.38;;
69081;SDS011;56184;51.986;5.760;2022-09-25T14:24:18;4.55;;;1.83;;
69081;SDS011;56184;51.986;5.760;2022-09-25T14:26:56;3.33;;;1.60;;
69081;SDS011;56184;51.986;5.760;2022-09-25T14:29:28;2.42;;;1.20;;
69081;SDS011;56184;51.986;5.760;2022-09-25T14:37:48;2.05;;;1.83;;
69081;SDS011;56184;51.986;5.760;2022-09-25T14:40:27;2.35;;;1.50;;
69081;SDS011;56184;51.986;5.760;2022-09-25T14:46:38;2.53;;;1.00;;
69081;SDS011;56184;51.986;5.760;2022-09-25T14:49:18;2.05;;;0.90;;
69081;SDS011;56184;51.986;5.760;2022-09-25T14:52:07;2.80;;;1.00;;
69081;SDS011;56184;51.986;5.760;2022-09-25T14:54:37;2.97;;;0.80;;
69081;SDS011;56184;51.986;5.760;2022-09-25T14:57:06;4.05;;;1.70;;
69081;SDS011;56184;51.986;5.760;2022-09-25T14:59:51;1.40;;;0.65;;
69081;SDS011;56184;51.986;5.760;2022-09-25T15:02:20;6.53;;;0.88;;
69081;SDS011;56184;51.986;5.760;2022-09-25T15:04:55;2.33;;;1.40;;
69081;SDS011;56184;51.986;5.760;2022-09-25T15:07:22;2.40;;;0.90;;
69081;SDS011;56184;51.986;5.760;2022-09-25T15:09:50;3.58;;;1.13;;
69081;SDS011;56184;51.986;5.760;2022-09-25T15:12:29;3.38;;;1.20;;
69081;SDS011;56184;51.986;5.760;2022-09-25T15:15:09;5.70;;;1.50;;
69081;SDS011;56184;51.986;5.760;2022-09-25T15:17:42;4.20;;;1.40;;
69081;SDS011;56184;51.986;5.760;2022-09-25T15:20:17;2.67;;;0.90;;
69081;SDS011;56184;51.986;5.760;2022-09-25T15:22:51;2.33;;;0.63;;
69081;SDS011;56184;51.986;5.760;2022-09-25T15:25:30;2.03;;;0.80;;
69081;SDS011;56184;51.986;5.760;2022-09-25T15:27:59;4.70;;;1.00;;
69081;SDS011;56184;51.986;5.760;2022-09-25T15:30:26;4.00;;;0.80;;
69081;SDS011;56184;51.986;5.760;2022-09-25T15:32:53;3.85;;;0.98;;
69081;SDS011;56184;51.986;5.760;2022-09-25T15:35:23;3.03;;;1.40;;
69081;SDS011;56184;51.986;5.760;2022-09-25T15:38:00;2.15;;;1.23;;
69081;SDS011;56184;51.986;5.760;2022-09-25T15:40:37;3.30;;;1.30;;
69081;SDS011;56184;51.986;5.760;2022-09-25T15:43:03;4.30;;;1.25;;
69081;SDS011;56184;51.986;5.760;2022-09-25T15:45:42;1.65;;;0.70;;
69081;SDS011;56184;51.986;5.760;2022-09-25T15:48:26;2.72;;;1.05;;
69081;SDS011;56184;51.986;5.760;2022-09-25T15:51:00;2.72;;;1.42;;
69081;SDS011;56184;51.986;5.760;2022-09-25T15:53:39;3.53;;;1.30;;
69081;SDS011;56184;51.986;5.760;2022-09-25T15:56:20;1.33;;;0.70;;
69081;SDS011;56184;51.986;5.760;2022-09-25T15:58:56;2.03;;;0.98;;
69081;SDS011;56184;51.986;5.760;2022-09-25T16:01:28;1.10;;;1.00;;
69081;SDS011;56184;51.986;5.760;2022-09-25T16:04:17;2.80;;;0.70;;
69081;SDS011;56184;51.986;5.760;2022-09-25T16:15:39;3.10;;;0.60;;
69081;SDS011;56184;51.986;5.760;2022-09-25T16:21:20;2.78;;;0.50;;
69081;SDS011;56184;51.986;5.760;2022-09-25T16:23:58;5.40;;;0.73;;
69081;SDS011;56184;51.986;5.760;2022-09-25T16:26:31;1.90;;;0.60;;
69081;SDS011;56184;51.986;5.760;2022-09-25T16:29:04;4.43;;;0.80;;
69081;SDS011;56184;51.986;5.760;2022-09-25T16:31:40;1.55;;;1.10;;
69081;SDS011;56184;51.986;5.760;2022-09-25T16:34:18;2.38;;;0.80;;
69081;SDS011;56184;51.986;5.760;2022-09-25T16:37:17;3.42;;;0.80;;
69081;SDS011;56184;51.986;5.760;2022-09-25T16:39:45;4.45;;;0.80;;
69081;SDS011;56184;51.986;5.760;2022-09-25T16:42:33;2.00;;;0.90;;
69081;SDS011;56184;51.986;5.760;2022-09-25T16:45:13;6.03;;;1.35;;
69081;SDS011;56184;51.986;5.760;2022-09-25T16:51:02;1.40;;;0.60;;
69081;SDS011;56184;51.986;5.760;2022-09-25T16:53:52;5.63;;;0.90;;
69081;SDS011;56184;51.986;5.760;2022-09-25T16:58:53;4.07;;;0.75;;
69081;SDS011;56184;51.986;5.760;2022-09-25T17:01:20;4.93;;;0.90;;
69081;SDS011;56184;51.986;5.760;2022-09-25T17:03:48;3.60;;;0.70;;
69081;SDS011;56184;51.986;5.760;2022-09-25T17:06:23;1.48;;;0.63;;
69081;SDS011;56184;51.986;5.760;2022-09-25T17:08:50;2.50;;;0.90;;
69081;SDS011;56184;51.986;5.760;2022-09-25T17:11:17;3.90;;;0.70;;
69081;SDS011;56184;51.986;5.760;2022-09-25T17:13:44;0.93;;;0.60;;
69081;SDS011;56184;51.986;5.760;2022-09-25T17:16:11;1.58;;;0.60;;
69081;SDS011;56184;51.986;5.760;2022-09-25T17:18:37;3.00;;;0.80;;
69081;SDS011;56184;51.986;5.760;2022-09-25T17:21:05;3.10;;;1.00;;
69081;SDS011;56184;51.986;5.760;2022-09-25T17:23:36;3.20;;;1.50;;
69081;SDS011;56184;51.986;5.760;2022-09-25T17:26:04;3.55;;;2.30;;
69081;SDS011;56184;51.986;5.760;2022-09-25T17:28:38;5.78;;;2.20;;
69081;SDS011;56184;51.986;5.760;2022-09-25T17:31:04;4.32;;;2.53;;
69081;SDS011;56184;51.986;5.760;2022-09-25T17:33:30;5.20;;;1.70;;
69081;SDS011;56184;51.986;5.760;2022-09-25T17:38:28;2.93;;;1.63;;
69081;SDS011;56184;51.986;5.760;2022-09-25T17:40:56;5.30;;;1.50;;
69081;SDS011;56184;51.986;5.760;2022-09-25T17:43:24;2.17;;;1.20;;
69081;SDS011;56184;51.986;5.760;2022-09-25T17:45:50;2.67;;;1.40;;
69081;SDS011;56184;51.986;5.760;2022-09-25T17:48:19;2.65;;;1.10;;
69081;SDS011;56184;51.986;5.760;2022-09-25T17:50:57;3.72;;;1.17;;
69081;SDS011;56184;51.986;5.760;2022-09-25T17:53:30;4.82;;;2.08;;
69081;SDS011;56184;51.986;5.760;2022-09-25T17:55:58;5.90;;;2.75;;
69081;SDS011;56184;51.986;5.760;2022-09-25T17:58:30;5.53;;;2.70;;
69081;SDS011;56184;51.986;5.760;2022-09-25T18:00:57;10.98;;;3.50;;
69081;SDS011;56184;51.986;5.760;2022-09-25T18:03:24;7.05;;;3.92;;
69081;SDS011;56184;51.986;5.760;2022-09-25T18:05:50;7.63;;;4.55;;
69081;SDS011;56184;51.986;5.760;2022-09-25T18:08:16;8.40;;;5.05;;
69081;SDS011;56184;51.986;5.760;2022-09-25T18:13:27;9.32;;;4.80;;
69081;SDS011;56184;51.986;5.760;2022-09-25T18:15:53;6.32;;;4.20;;
69081;SDS011;56184;51.986;5.760;2022-09-25T18:18:22;8.15;;;4.35;;
69081;SDS011;56184;51.986;5.760;2022-09-25T18:20:48;8.35;;;4.57;;
69081;SDS011;56184;51.986;5.760;2022-09-25T18:23:52;8.65;;;4.80;;
69081;SDS011;56184;51.986;5.760;2022-09-25T18:26:17;9.13;;;4.40;;
69081;SDS011;56184;51.986;5.760;2022-09-25T18:28:43;4.95;;;2.90;;
69081;SDS011;56184;51.986;5.760;2022-09-25T18:31:08;6.40;;;3.00;;
69081;SDS011;56184;51.986;5.760;2022-09-25T18:33:35;5.57;;;3.03;;
69081;SDS011;56184;51.986;5.760;2022-09-25T18:36:01;7.90;;;3.15;;